Ельцовка

Карта отелей и гостиниц, располагающихся рядом с аэропортом Ельцовка :

Ельцовка
Новосибирск
Новосибирская область 55° 5' 33.54" N, 83° 0' 15.66" E
Ельцовка
Новосибирск
Новосибирская область 55° 5' 33.54" N, 83° 0' 15.66" E
Код аэродрома ИКАО
UNNE
Код аэродрома RU
УННЕ
Координаты
N55.09265° E083.00435°
Превышение над уровнем моря
199
Основная полоса
01/19
Курс магнитный
007/187
Длина основной ВПП
2860
Ширина основной ВПП
78
Покрытие основной ВПП
Твёрдое
Освещение ВПП
Нет
Тип: 
Аэродром
Класс аэродрома: 
Принадлежность: 
ЭА
Статус: 
Действующий
Сайт: 
http://www.napo.ru/
E-mail аэродрома: 
info@naz.sukhoi.org
Страна: 
Россия
Регион: 
Новосибирская область
Город: 
Новосибирск
Дополнительная информация: 
Оператор: ПАО «Компания «Сухой». Базируется гос. авиация, Новосибирский авиационный завод им. В.П. Чкалова.

Найти трансфер

С помощью этой формы Вы можете найти трансфер из аэропорта Ельцовка в город, аэропорт или вокзал:

Карта места

Javascript is required to view this map.

Погода в аэропортах:

Авиационная погода в Волгограде

Регион: 
Погода METAR: 
URWW 281300Z 13004MPS 4000 BR BKN002 06/06 Q1013 R06/290060 TEMPO 0300 FG RMK QBB060 OBST OBSC
Время наблюдения
2021-11-28T13:00:00Z
Температура C
6.0
Точка росы
6.0
Направление ветра
130
Скорость ветра (узлы)
8
Метео видимость
2.49
Явления погоды
BR
Условия полета
LIFR
Аэропорт подробнее: 

Авиационная погода в Курске

Погода METAR: 
UUOK 281300Z 18002MPS 160V240 5000 BR OVC011 07/06 Q1008 R30/290050 TEMPO 1500 BR RMK QFE737/0983
Время наблюдения
2021-11-28T13:00:00Z
Температура C
7.0
Точка росы
6.0
Направление ветра
180
Скорость ветра (узлы)
4
Метео видимость
3.11
Явления погоды
BR
Условия полета
MVFR
Аэропорт подробнее: 

Авиационная погода в аэропорту Байкал

Регион: 
Погода METAR: 
UIUU 281300Z 22002MPS 6000 2200NE FU NSC M14/M18 Q1027 R26/820550 NOSIG RMK QFE725/0967
Время наблюдения
2021-11-28T13:00:00Z
Температура C
-14.0
Точка росы
-18.0
Направление ветра
220
Скорость ветра (узлы)
4
Метео видимость
3.73
Явления погоды
FU
Условия полета
MVFR
Аэропорт подробнее: 

Авиационная погода в Гродно

Регион: 
Погода METAR: 
UMMG 281100Z 14003MPS 5000 BR SCT020 OVC100 02/M00 Q1000 NOSIG
Время наблюдения
2021-11-28T11:00:00Z
Температура C
2.0
Точка росы
0.0
Направление ветра
140
Скорость ветра (узлы)
6
Метео видимость
3.11
Явления погоды
BR
Условия полета
MVFR
Аэропорт подробнее: